sensor_id;sensor_type;location;lat;lon;timestamp;P1;durP1;ratioP1;P2;durP2;ratioP2
48679;SDS011;34475;51.658;5.634;2023-03-30T00:00:00;0.5;;;0.5;;
48679;SDS011;34475;51.658;5.634;2023-03-30T00:01:01;0.5;;;0.5;;
48679;SDS011;34475;51.658;5.634;2023-03-30T00:02:02;0.5;;;0.5;;
48679;SDS011;34475;51.658;5.634;2023-03-30T00:03:01;0.5;;;0.5;;
48679;SDS011;34475;51.658;5.634;2023-03-30T00:04:01;0.5;;;0.5;;
48679;SDS011;34475;51.658;5.634;2023-03-30T00:05:01;0.6;;;0.6;;
48679;SDS011;34475;51.658;5.634;2023-03-30T00:06:02;0.6;;;0.6;;
48679;SDS011;34475;51.658;5.634;2023-03-30T00:07:00;0.6;;;0.6;;
48679;SDS011;34475;51.658;5.634;2023-03-30T00:08:01;0.6;;;0.6;;
48679;SDS011;34475;51.658;5.634;2023-03-30T00:09:00;0.6;;;0.6;;
48679;SDS011;34475;51.658;5.634;2023-03-30T00:10:01;0.6;;;0.6;;
48679;SDS011;34475;51.658;5.634;2023-03-30T00:11:06;0.6;;;0.6;;
48679;SDS011;34475;51.658;5.634;2023-03-30T00:12:02;0.6;;;0.6;;
48679;SDS011;34475;51.658;5.634;2023-03-30T00:13:00;0.6;;;0.6;;
48679;SDS011;34475;51.658;5.634;2023-03-30T00:14:00;0.6;;;0.6;;
48679;SDS011;34475;51.658;5.634;2023-03-30T00:15:01;0.6;;;0.6;;
48679;SDS011;34475;51.658;5.634;2023-03-30T00:16:00;0.6;;;0.6;;
48679;SDS011;34475;51.658;5.634;2023-03-30T00:17:00;0.6;;;0.6;;
48679;SDS011;34475;51.658;5.634;2023-03-30T00:18:00;0.6;;;0.6;;
48679;SDS011;34475;51.658;5.634;2023-03-30T00:19:00;0.6;;;0.6;;
48679;SDS011;34475;51.658;5.634;2023-03-30T00:20:04;0.6;;;0.6;;
48679;SDS011;34475;51.658;5.634;2023-03-30T00:21:02;0.6;;;0.6;;
48679;SDS011;34475;51.658;5.634;2023-03-30T00:22:00;0.6;;;0.6;;
48679;SDS011;34475;51.658;5.634;2023-03-30T00:23:00;0.6;;;0.6;;
48679;SDS011;34475;51.658;5.634;2023-03-30T00:24:00;0.6;;;0.6;;
48679;SDS011;34475;51.658;5.634;2023-03-30T00:25:00;0.7;;;0.7;;
48679;SDS011;34475;51.658;5.634;2023-03-30T00:26:00;0.7;;;0.7;;
48679;SDS011;34475;51.658;5.634;2023-03-30T00:27:01;0.7;;;0.7;;
48679;SDS011;34475;51.658;5.634;2023-03-30T00:28:00;0.7;;;0.7;;
48679;SDS011;34475;51.658;5.634;2023-03-30T00:29:00;0.7;;;0.7;;
48679;SDS011;34475;51.658;5.634;2023-03-30T00:30:00;0.7;;;0.7;;
48679;SDS011;34475;51.658;5.634;2023-03-30T00:31:00;0.7;;;0.7;;
48679;SDS011;34475;51.658;5.634;2023-03-30T00:32:00;0.7;;;0.7;;
48679;SDS011;34475;51.658;5.634;2023-03-30T00:33:00;0.7;;;0.7;;
48679;SDS011;34475;51.658;5.634;2023-03-30T00:34:00;0.7;;;0.7;;
48679;SDS011;34475;51.658;5.634;2023-03-30T00:35:00;0.7;;;0.7;;
48679;SDS011;34475;51.658;5.634;2023-03-30T00:36:00;0.7;;;0.7;;
48679;SDS011;34475;51.658;5.634;2023-03-30T00:37:01;0.7;;;0.7;;
48679;SDS011;34475;51.658;5.634;2023-03-30T00:38:00;0.7;;;0.7;;
48679;SDS011;34475;51.658;5.634;2023-03-30T00:39:00;0.7;;;0.7;;
48679;SDS011;34475;51.658;5.634;2023-03-30T00:40:00;0.7;;;0.7;;
48679;SDS011;34475;51.658;5.634;2023-03-30T00:41:00;0.7;;;0.7;;
48679;SDS011;34475;51.658;5.634;2023-03-30T00:42:00;0.7;;;0.7;;
48679;SDS011;34475;51.658;5.634;2023-03-30T00:43:03;0.7;;;0.7;;
48679;SDS011;34475;51.658;5.634;2023-03-30T00:44:03;0.7;;;0.7;;
48679;SDS011;34475;51.658;5.634;2023-03-30T00:45:08;0.7;;;0.7;;
48679;SDS011;34475;51.658;5.634;2023-03-30T00:46:00;0.7;;;0.7;;
48679;SDS011;34475;51.658;5.634;2023-03-30T00:47:00;0.7;;;0.7;;
48679;SDS011;34475;51.658;5.634;2023-03-30T00:49:04;0.7;;;0.7;;
48679;SDS011;34475;51.658;5.634;2023-03-30T00:50:01;0.7;;;0.7;;
48679;SDS011;34475;51.658;5.634;2023-03-30T00:51:05;0.7;;;0.7;;
48679;SDS011;34475;51.658;5.634;2023-03-30T00:52:01;0.7;;;0.7;;
48679;SDS011;34475;51.658;5.634;2023-03-30T00:53:04;0.7;;;0.7;;
48679;SDS011;34475;51.658;5.634;2023-03-30T00:54:06;0.7;;;0.7;;
48679;SDS011;34475;51.658;5.634;2023-03-30T00:55:00;0.7;;;0.7;;
48679;SDS011;34475;51.658;5.634;2023-03-30T00:56:02;0.7;;;0.7;;
48679;SDS011;34475;51.658;5.634;2023-03-30T00:57:00;0.7;;;0.7;;
48679;SDS011;34475;51.658;5.634;2023-03-30T00:58:00;0.7;;;0.7;;
48679;SDS011;34475;51.658;5.634;2023-03-30T00:59:01;0.7;;;0.7;;
48679;SDS011;34475;51.658;5.634;2023-03-30T01:00:00;0.7;;;0.7;;
48679;SDS011;34475;51.658;5.634;2023-03-30T01:01:03;0.7;;;0.7;;
48679;SDS011;34475;51.658;5.634;2023-03-30T01:02:00;0.7;;;0.7;;
48679;SDS011;34475;51.658;5.634;2023-03-30T01:03:04;0.7;;;0.7;;
48679;SDS011;34475;51.658;5.634;2023-03-30T01:04:01;0.7;;;0.7;;
48679;SDS011;34475;51.658;5.634;2023-03-30T01:05:01;0.7;;;0.7;;
48679;SDS011;34475;51.658;5.634;2023-03-30T01:06:03;0.7;;;0.7;;
48679;SDS011;34475;51.658;5.634;2023-03-30T01:07:00;0.7;;;0.7;;
48679;SDS011;34475;51.658;5.634;2023-03-30T01:08:00;0.7;;;0.7;;
48679;SDS011;34475;51.658;5.634;2023-03-30T01:09:00;0.7;;;0.7;;
48679;SDS011;34475;51.658;5.634;2023-03-30T01:10:00;0.7;;;0.7;;
48679;SDS011;34475;51.658;5.634;2023-03-30T01:11:02;0.7;;;0.7;;
48679;SDS011;34475;51.658;5.634;2023-03-30T01:12:00;0.7;;;0.7;;
48679;SDS011;34475;51.658;5.634;2023-03-30T01:13:01;0.7;;;0.7;;
48679;SDS011;34475;51.658;5.634;2023-03-30T01:14:03;0.7;;;0.7;;
48679;SDS011;34475;51.658;5.634;2023-03-30T01:15:00;0.7;;;0.7;;
48679;SDS011;34475;51.658;5.634;2023-03-30T01:20:18;0.7;;;0.7;;
48679;SDS011;34475;51.658;5.634;2023-03-30T01:26:22;0.8;;;0.8;;
48679;SDS011;34475;51.658;5.634;2023-03-30T01:27:14;0.8;;;0.8;;
48679;SDS011;34475;51.658;5.634;2023-03-30T01:28:13;0.8;;;0.8;;
48679;SDS011;34475;51.658;5.634;2023-03-30T01:29:06;0.8;;;0.8;;
48679;SDS011;34475;51.658;5.634;2023-03-30T01:33:15;0.8;;;0.8;;
48679;SDS011;34475;51.658;5.634;2023-03-30T01:34:29;0.8;;;0.8;;
48679;SDS011;34475;51.658;5.634;2023-03-30T01:37:16;0.8;;;0.8;;
48679;SDS011;34475;51.658;5.634;2023-03-30T01:38:07;0.8;;;0.8;;
48679;SDS011;34475;51.658;5.634;2023-03-30T01:40:12;0.8;;;0.8;;
48679;SDS011;34475;51.658;5.634;2023-03-30T01:42:14;0.8;;;0.8;;
48679;SDS011;34475;51.658;5.634;2023-03-30T01:43:08;0.8;;;0.8;;
48679;SDS011;34475;51.658;5.634;2023-03-30T01:44:11;0.9;;;0.9;;
48679;SDS011;34475;51.658;5.634;2023-03-30T01:46:07;0.9;;;0.9;;
48679;SDS011;34475;51.658;5.634;2023-03-30T01:47:09;0.9;;;0.9;;
48679;SDS011;34475;51.658;5.634;2023-03-30T01:49:09;0.9;;;0.9;;
48679;SDS011;34475;51.658;5.634;2023-03-30T01:50:07;0.9;;;0.9;;
48679;SDS011;34475;51.658;5.634;2023-03-30T01:51:06;0.9;;;0.9;;
48679;SDS011;34475;51.658;5.634;2023-03-30T01:52:05;0.9;;;0.9;;
48679;SDS011;34475;51.658;5.634;2023-03-30T01:54:13;0.9;;;0.9;;
48679;SDS011;34475;51.658;5.634;2023-03-30T01:55:06;0.9;;;0.9;;
48679;SDS011;34475;51.658;5.634;2023-03-30T01:56:06;0.9;;;0.9;;
48679;SDS011;34475;51.658;5.634;2023-03-30T01:57:06;0.9;;;0.9;;
48679;SDS011;34475;51.658;5.634;2023-03-30T01:58:06;0.9;;;0.9;;
48679;SDS011;34475;51.658;5.634;2023-03-30T02:00:13;0.9;;;0.9;;
48679;SDS011;34475;51.658;5.634;2023-03-30T02:01:01;0.9;;;0.9;;
48679;SDS011;34475;51.658;5.634;2023-03-30T02:02:03;0.9;;;0.9;;
48679;SDS011;34475;51.658;5.634;2023-03-30T02:03:05;0.9;;;0.9;;
48679;SDS011;34475;51.658;5.634;2023-03-30T02:04:02;0.9;;;0.9;;
48679;SDS011;34475;51.658;5.634;2023-03-30T02:05:04;1.4;;;1.4;;
48679;SDS011;34475;51.658;5.634;2023-03-30T02:06:10;1.4;;;1.4;;
48679;SDS011;34475;51.658;5.634;2023-03-30T02:07:05;1.4;;;1.4;;
48679;SDS011;34475;51.658;5.634;2023-03-30T02:08:06;1.4;;;1.4;;
48679;SDS011;34475;51.658;5.634;2023-03-30T02:09:00;1.4;;;1.4;;
48679;SDS011;34475;51.658;5.634;2023-03-30T02:10:04;1.4;;;1.4;;
48679;SDS011;34475;51.658;5.634;2023-03-30T02:11:00;1.4;;;1.4;;
48679;SDS011;34475;51.658;5.634;2023-03-30T02:12:02;1.4;;;1.4;;
48679;SDS011;34475;51.658;5.634;2023-03-30T02:13:01;1.4;;;1.4;;
48679;SDS011;34475;51.658;5.634;2023-03-30T02:14:02;1.4;;;1.4;;
48679;SDS011;34475;51.658;5.634;2023-03-30T02:15:03;1.4;;;1.4;;
48679;SDS011;34475;51.658;5.634;2023-03-30T02:16:11;1.4;;;1.4;;
48679;SDS011;34475;51.658;5.634;2023-03-30T02:17:08;1.4;;;1.4;;
48679;SDS011;34475;51.658;5.634;2023-03-30T02:18:00;1.4;;;1.4;;
48679;SDS011;34475;51.658;5.634;2023-03-30T02:19:00;1.4;;;1.4;;
48679;SDS011;34475;51.658;5.634;2023-03-30T02:20:00;1.4;;;1.4;;
48679;SDS011;34475;51.658;5.634;2023-03-30T02:21:00;1.4;;;1.4;;
48679;SDS011;34475;51.658;5.634;2023-03-30T02:22:00;1.4;;;1.4;;
48679;SDS011;34475;51.658;5.634;2023-03-30T02:23:01;1.4;;;1.4;;
48679;SDS011;34475;51.658;5.634;2023-03-30T02:24:03;1.5;;;1.5;;
48679;SDS011;34475;51.658;5.634;2023-03-30T02:25:01;1.5;;;1.5;;
48679;SDS011;34475;51.658;5.634;2023-03-30T02:26:00;1.5;;;1.5;;
48679;SDS011;34475;51.658;5.634;2023-03-30T02:27:01;1.5;;;1.5;;
48679;SDS011;34475;51.658;5.634;2023-03-30T02:28:00;1.5;;;1.5;;
48679;SDS011;34475;51.658;5.634;2023-03-30T02:29:00;1.5;;;1.5;;
48679;SDS011;34475;51.658;5.634;2023-03-30T02:30:00;1.5;;;1.5;;
48679;SDS011;34475;51.658;5.634;2023-03-30T02:31:00;1.5;;;1.5;;
48679;SDS011;34475;51.658;5.634;2023-03-30T02:32:00;1.5;;;1.5;;
48679;SDS011;34475;51.658;5.634;2023-03-30T02:33:00;1.5;;;1.5;;
48679;SDS011;34475;51.658;5.634;2023-03-30T02:34:11;1.5;;;1.5;;
48679;SDS011;34475;51.658;5.634;2023-03-30T02:36:04;1.5;;;1.5;;
48679;SDS011;34475;51.658;5.634;2023-03-30T02:37:09;1.5;;;1.5;;
48679;SDS011;34475;51.658;5.634;2023-03-30T02:38:15;1.5;;;1.5;;
48679;SDS011;34475;51.658;5.634;2023-03-30T02:39:09;1.5;;;1.5;;
48679;SDS011;34475;51.658;5.634;2023-03-30T02:41:12;1.5;;;1.5;;
48679;SDS011;34475;51.658;5.634;2023-03-30T02:42:10;1.5;;;1.5;;
48679;SDS011;34475;51.658;5.634;2023-03-30T02:43:16;1.5;;;1.5;;
48679;SDS011;34475;51.658;5.634;2023-03-30T02:45:13;0.5;;;0.5;;
48679;SDS011;34475;51.658;5.634;2023-03-30T02:47:06;0.5;;;0.5;;
48679;SDS011;34475;51.658;5.634;2023-03-30T02:48:21;0.5;;;0.5;;
48679;SDS011;34475;51.658;5.634;2023-03-30T02:49:22;0.5;;;0.5;;
48679;SDS011;34475;51.658;5.634;2023-03-30T02:50:07;0.5;;;0.5;;
48679;SDS011;34475;51.658;5.634;2023-03-30T02:51:13;0.5;;;0.5;;
48679;SDS011;34475;51.658;5.634;2023-03-30T02:55:18;0.5;;;0.5;;
48679;SDS011;34475;51.658;5.634;2023-03-30T02:56:06;0.5;;;0.5;;
48679;SDS011;34475;51.658;5.634;2023-03-30T02:57:10;0.5;;;0.5;;
48679;SDS011;34475;51.658;5.634;2023-03-30T02:58:13;0.5;;;0.5;;
48679;SDS011;34475;51.658;5.634;2023-03-30T02:59:03;0.5;;;0.5;;
48679;SDS011;34475;51.658;5.634;2023-03-30T03:00:17;0.5;;;0.5;;
48679;SDS011;34475;51.658;5.634;2023-03-30T03:01:04;0.5;;;0.5;;
48679;SDS011;34475;51.658;5.634;2023-03-30T03:02:04;0.5;;;0.5;;
48679;SDS011;34475;51.658;5.634;2023-03-30T03:03:05;0.5;;;0.5;;
48679;SDS011;34475;51.658;5.634;2023-03-30T03:04:02;0.6;;;0.6;;
48679;SDS011;34475;51.658;5.634;2023-03-30T03:05:02;0.6;;;0.6;;
48679;SDS011;34475;51.658;5.634;2023-03-30T03:06:01;0.6;;;0.6;;
48679;SDS011;34475;51.658;5.634;2023-03-30T03:07:01;0.6;;;0.6;;
48679;SDS011;34475;51.658;5.634;2023-03-30T03:08:00;0.6;;;0.6;;
48679;SDS011;34475;51.658;5.634;2023-03-30T03:09:00;0.6;;;0.6;;
48679;SDS011;34475;51.658;5.634;2023-03-30T03:10:00;0.6;;;0.6;;
48679;SDS011;34475;51.658;5.634;2023-03-30T03:11:00;0.6;;;0.6;;
48679;SDS011;34475;51.658;5.634;2023-03-30T03:12:00;0.6;;;0.6;;
48679;SDS011;34475;51.658;5.634;2023-03-30T03:13:00;0.6;;;0.6;;
48679;SDS011;34475;51.658;5.634;2023-03-30T03:14:00;0.6;;;0.6;;
48679;SDS011;34475;51.658;5.634;2023-03-30T03:15:00;0.6;;;0.6;;
48679;SDS011;34475;51.658;5.634;2023-03-30T03:16:03;0.6;;;0.6;;
48679;SDS011;34475;51.658;5.634;2023-03-30T03:17:00;0.6;;;0.6;;
48679;SDS011;34475;51.658;5.634;2023-03-30T03:18:00;0.6;;;0.6;;
48679;SDS011;34475;51.658;5.634;2023-03-30T03:19:00;0.6;;;0.6;;
48679;SDS011;34475;51.658;5.634;2023-03-30T03:20:02;0.6;;;0.6;;
48679;SDS011;34475;51.658;5.634;2023-03-30T03:21:00;0.6;;;0.6;;
48679;SDS011;34475;51.658;5.634;2023-03-30T03:22:00;0.6;;;0.6;;
48679;SDS011;34475;51.658;5.634;2023-03-30T03:23:00;0.6;;;0.6;;
48679;SDS011;34475;51.658;5.634;2023-03-30T03:24:00;0.5;;;0.5;;
48679;SDS011;34475;51.658;5.634;2023-03-30T03:25:01;0.5;;;0.5;;
48679;SDS011;34475;51.658;5.634;2023-03-30T03:26:00;0.5;;;0.5;;
48679;SDS011;34475;51.658;5.634;2023-03-30T03:27:00;0.5;;;0.5;;
48679;SDS011;34475;51.658;5.634;2023-03-30T03:28:00;0.5;;;0.5;;
48679;SDS011;34475;51.658;5.634;2023-03-30T03:29:00;0.5;;;0.5;;
48679;SDS011;34475;51.658;5.634;2023-03-30T03:30:00;0.5;;;0.5;;
48679;SDS011;34475;51.658;5.634;2023-03-30T03:31:01;0.5;;;0.5;;
48679;SDS011;34475;51.658;5.634;2023-03-30T03:32:00;0.5;;;0.5;;
48679;SDS011;34475;51.658;5.634;2023-03-30T03:33:00;0.5;;;0.5;;
48679;SDS011;34475;51.658;5.634;2023-03-30T03:34:00;0.5;;;0.5;;
48679;SDS011;34475;51.658;5.634;2023-03-30T03:35:00;0.5;;;0.5;;
48679;SDS011;34475;51.658;5.634;2023-03-30T03:36:00;0.5;;;0.5;;
48679;SDS011;34475;51.658;5.634;2023-03-30T03:37:00;0.5;;;0.5;;
48679;SDS011;34475;51.658;5.634;2023-03-30T03:38:00;0.5;;;0.5;;
48679;SDS011;34475;51.658;5.634;2023-03-30T03:39:00;0.5;;;0.5;;
48679;SDS011;34475;51.658;5.634;2023-03-30T03:40:00;0.5;;;0.5;;
48679;SDS011;34475;51.658;5.634;2023-03-30T03:41:00;0.5;;;0.5;;
48679;SDS011;34475;51.658;5.634;2023-03-30T03:42:00;0.5;;;0.5;;
48679;SDS011;34475;51.658;5.634;2023-03-30T03:43:00;0.5;;;0.5;;
48679;SDS011;34475;51.658;5.634;2023-03-30T03:44:00;0.9;;;0.9;;
48679;SDS011;34475;51.658;5.634;2023-03-30T03:45:00;0.9;;;0.9;;
48679;SDS011;34475;51.658;5.634;2023-03-30T03:46:00;0.9;;;0.9;;
48679;SDS011;34475;51.658;5.634;2023-03-30T03:47:00;0.9;;;0.9;;
48679;SDS011;34475;51.658;5.634;2023-03-30T03:48:00;0.9;;;0.9;;
48679;SDS011;34475;51.658;5.634;2023-03-30T03:49:00;0.9;;;0.9;;
48679;SDS011;34475;51.658;5.634;2023-03-30T03:50:03;0.9;;;0.9;;
48679;SDS011;34475;51.658;5.634;2023-03-30T03:51:00;0.9;;;0.9;;
48679;SDS011;34475;51.658;5.634;2023-03-30T03:52:00;0.9;;;0.9;;
48679;SDS011;34475;51.658;5.634;2023-03-30T03:53:00;0.9;;;0.9;;
48679;SDS011;34475;51.658;5.634;2023-03-30T03:54:00;0.9;;;0.9;;
48679;SDS011;34475;51.658;5.634;2023-03-30T03:55:00;0.9;;;0.9;;
48679;SDS011;34475;51.658;5.634;2023-03-30T03:56:01;0.9;;;0.9;;
48679;SDS011;34475;51.658;5.634;2023-03-30T03:57:00;0.9;;;0.9;;
48679;SDS011;34475;51.658;5.634;2023-03-30T03:58:03;0.9;;;0.9;;
48679;SDS011;34475;51.658;5.634;2023-03-30T03:59:02;0.9;;;0.9;;
48679;SDS011;34475;51.658;5.634;2023-03-30T04:00:00;0.9;;;0.9;;
48679;SDS011;34475;51.658;5.634;2023-03-30T04:01:01;0.9;;;0.9;;
48679;SDS011;34475;51.658;5.634;2023-03-30T04:02:00;0.9;;;0.9;;
48679;SDS011;34475;51.658;5.634;2023-03-30T04:03:00;0.9;;;0.9;;
48679;SDS011;34475;51.658;5.634;2023-03-30T04:04:00;0.8;;;0.8;;
48679;SDS011;34475;51.658;5.634;2023-03-30T04:05:00;0.8;;;0.8;;
48679;SDS011;34475;51.658;5.634;2023-03-30T04:06:01;0.8;;;0.8;;
48679;SDS011;34475;51.658;5.634;2023-03-30T04:07:00;0.8;;;0.8;;
48679;SDS011;34475;51.658;5.634;2023-03-30T04:08:00;0.8;;;0.8;;
48679;SDS011;34475;51.658;5.634;2023-03-30T04:09:01;0.8;;;0.8;;
48679;SDS011;34475;51.658;5.634;2023-03-30T04:10:01;0.8;;;0.8;;
48679;SDS011;34475;51.658;5.634;2023-03-30T04:11:07;0.8;;;0.8;;
48679;SDS011;34475;51.658;5.634;2023-03-30T04:12:00;0.8;;;0.8;;
48679;SDS011;34475;51.658;5.634;2023-03-30T04:13:00;0.8;;;0.8;;
48679;SDS011;34475;51.658;5.634;2023-03-30T04:14:00;0.8;;;0.8;;
48679;SDS011;34475;51.658;5.634;2023-03-30T04:15:00;0.8;;;0.8;;
48679;SDS011;34475;51.658;5.634;2023-03-30T04:16:01;0.8;;;0.8;;
48679;SDS011;34475;51.658;5.634;2023-03-30T04:17:00;0.8;;;0.8;;
48679;SDS011;34475;51.658;5.634;2023-03-30T04:18:00;0.8;;;0.8;;
48679;SDS011;34475;51.658;5.634;2023-03-30T04:19:00;0.8;;;0.8;;
48679;SDS011;34475;51.658;5.634;2023-03-30T04:20:01;0.8;;;0.8;;
48679;SDS011;34475;51.658;5.634;2023-03-30T04:21:03;0.8;;;0.8;;
48679;SDS011;34475;51.658;5.634;2023-03-30T04:22:00;0.8;;;0.8;;
48679;SDS011;34475;51.658;5.634;2023-03-30T04:23:00;0.8;;;0.8;;
48679;SDS011;34475;51.658;5.634;2023-03-30T04:24:00;0.6;;;0.6;;
48679;SDS011;34475;51.658;5.634;2023-03-30T04:25:00;0.6;;;0.6;;
48679;SDS011;34475;51.658;5.634;2023-03-30T04:26:01;0.6;;;0.6;;
48679;SDS011;34475;51.658;5.634;2023-03-30T04:27:01;0.6;;;0.6;;
48679;SDS011;34475;51.658;5.634;2023-03-30T04:28:00;0.6;;;0.6;;
48679;SDS011;34475;51.658;5.634;2023-03-30T04:29:00;0.6;;;0.6;;
48679;SDS011;34475;51.658;5.634;2023-03-30T04:30:01;0.6;;;0.6;;
48679;SDS011;34475;51.658;5.634;2023-03-30T04:31:03;0.6;;;0.6;;
48679;SDS011;34475;51.658;5.634;2023-03-30T04:32:02;0.6;;;0.6;;
48679;SDS011;34475;51.658;5.634;2023-03-30T04:33:01;0.6;;;0.6;;
48679;SDS011;34475;51.658;5.634;2023-03-30T04:34:03;0.6;;;0.6;;
48679;SDS011;34475;51.658;5.634;2023-03-30T04:35:00;0.6;;;0.6;;
48679;SDS011;34475;51.658;5.634;2023-03-30T04:36:00;0.6;;;0.6;;
48679;SDS011;34475;51.658;5.634;2023-03-30T04:37:00;0.6;;;0.6;;
48679;SDS011;34475;51.658;5.634;2023-03-30T04:38:00;0.6;;;0.6;;
48679;SDS011;34475;51.658;5.634;2023-03-30T04:39:00;0.6;;;0.6;;
48679;SDS011;34475;51.658;5.634;2023-03-30T04:40:02;0.6;;;0.6;;
48679;SDS011;34475;51.658;5.634;2023-03-30T04:41:00;0.6;;;0.6;;
48679;SDS011;34475;51.658;5.634;2023-03-30T04:42:03;0.6;;;0.6;;
48679;SDS011;34475;51.658;5.634;2023-03-30T04:43:02;0.6;;;0.6;;
48679;SDS011;34475;51.658;5.634;2023-03-30T04:44:02;0.7;;;0.7;;
48679;SDS011;34475;51.658;5.634;2023-03-30T04:45:00;0.7;;;0.7;;
48679;SDS011;34475;51.658;5.634;2023-03-30T04:46:00;0.7;;;0.7;;
48679;SDS011;34475;51.658;5.634;2023-03-30T04:47:00;0.7;;;0.7;;
48679;SDS011;34475;51.658;5.634;2023-03-30T04:48:00;0.7;;;0.7;;
48679;SDS011;34475;51.658;5.634;2023-03-30T04:49:01;0.7;;;0.7;;
48679;SDS011;34475;51.658;5.634;2023-03-30T04:50:00;0.7;;;0.7;;
48679;SDS011;34475;51.658;5.634;2023-03-30T04:51:00;0.7;;;0.7;;
48679;SDS011;34475;51.658;5.634;2023-03-30T04:52:00;0.7;;;0.7;;
48679;SDS011;34475;51.658;5.634;2023-03-30T04:53:00;0.7;;;0.7;;
48679;SDS011;34475;51.658;5.634;2023-03-30T04:54:01;0.7;;;0.7;;
48679;SDS011;34475;51.658;5.634;2023-03-30T04:55:00;0.7;;;0.7;;
48679;SDS011;34475;51.658;5.634;2023-03-30T04:56:00;0.7;;;0.7;;
48679;SDS011;34475;51.658;5.634;2023-03-30T04:57:00;0.7;;;0.7;;
48679;SDS011;34475;51.658;5.634;2023-03-30T04:58:00;0.7;;;0.7;;
48679;SDS011;34475;51.658;5.634;2023-03-30T04:59:00;0.7;;;0.7;;
48679;SDS011;34475;51.658;5.634;2023-03-30T05:00:00;0.7;;;0.7;;
48679;SDS011;34475;51.658;5.634;2023-03-30T05:01:00;0.7;;;0.7;;
48679;SDS011;34475;51.658;5.634;2023-03-30T05:02:02;0.7;;;0.7;;
48679;SDS011;34475;51.658;5.634;2023-03-30T05:03:00;0.7;;;0.7;;
48679;SDS011;34475;51.658;5.634;2023-03-30T05:04:00;0.6;;;0.6;;
48679;SDS011;34475;51.658;5.634;2023-03-30T05:05:00;0.6;;;0.6;;
48679;SDS011;34475;51.658;5.634;2023-03-30T05:06:00;0.6;;;0.6;;
48679;SDS011;34475;51.658;5.634;2023-03-30T05:07:01;0.6;;;0.6;;
48679;SDS011;34475;51.658;5.634;2023-03-30T05:08:00;0.6;;;0.6;;
48679;SDS011;34475;51.658;5.634;2023-03-30T05:09:00;0.6;;;0.6;;
48679;SDS011;34475;51.658;5.634;2023-03-30T05:10:00;0.6;;;0.6;;
48679;SDS011;34475;51.658;5.634;2023-03-30T05:11:02;0.6;;;0.6;;
48679;SDS011;34475;51.658;5.634;2023-03-30T05:12:00;0.6;;;0.6;;
48679;SDS011;34475;51.658;5.634;2023-03-30T05:13:00;0.6;;;0.6;;
48679;SDS011;34475;51.658;5.634;2023-03-30T05:14:00;0.6;;;0.6;;
48679;SDS011;34475;51.658;5.634;2023-03-30T05:15:00;0.6;;;0.6;;
48679;SDS011;34475;51.658;5.634;2023-03-30T05:16:00;0.6;;;0.6;;
48679;SDS011;34475;51.658;5.634;2023-03-30T05:17:00;0.6;;;0.6;;
48679;SDS011;34475;51.658;5.634;2023-03-30T05:18:00;0.6;;;0.6;;
48679;SDS011;34475;51.658;5.634;2023-03-30T05:19:00;0.6;;;0.6;;
48679;SDS011;34475;51.658;5.634;2023-03-30T05:20:07;0.6;;;0.6;;
48679;SDS011;34475;51.658;5.634;2023-03-30T05:21:00;0.6;;;0.6;;
48679;SDS011;34475;51.658;5.634;2023-03-30T05:22:00;0.6;;;0.6;;
48679;SDS011;34475;51.658;5.634;2023-03-30T05:23:00;0.6;;;0.6;;
48679;SDS011;34475;51.658;5.634;2023-03-30T05:24:00;4.5;;;2.4;;
48679;SDS011;34475;51.658;5.634;2023-03-30T05:25:00;4.5;;;2.4;;
48679;SDS011;34475;51.658;5.634;2023-03-30T05:26:02;4.5;;;2.4;;
48679;SDS011;34475;51.658;5.634;2023-03-30T05:27:01;4.5;;;2.4;;
48679;SDS011;34475;51.658;5.634;2023-03-30T05:28:01;4.5;;;2.4;;
48679;SDS011;34475;51.658;5.634;2023-03-30T05:29:00;4.5;;;2.4;;
48679;SDS011;34475;51.658;5.634;2023-03-30T05:30:00;4.5;;;2.4;;
48679;SDS011;34475;51.658;5.634;2023-03-30T05:31:00;4.5;;;2.4;;
48679;SDS011;34475;51.658;5.634;2023-03-30T05:32:00;4.5;;;2.4;;
48679;SDS011;34475;51.658;5.634;2023-03-30T05:33:00;4.5;;;2.4;;
48679;SDS011;34475;51.658;5.634;2023-03-30T05:34:00;4.5;;;2.4;;
48679;SDS011;34475;51.658;5.634;2023-03-30T05:35:00;4.5;;;2.4;;
48679;SDS011;34475;51.658;5.634;2023-03-30T05:36:00;4.5;;;2.4;;
48679;SDS011;34475;51.658;5.634;2023-03-30T05:37:00;4.5;;;2.4;;
48679;SDS011;34475;51.658;5.634;2023-03-30T05:38:00;4.5;;;2.4;;
48679;SDS011;34475;51.658;5.634;2023-03-30T05:39:00;4.5;;;2.4;;
48679;SDS011;34475;51.658;5.634;2023-03-30T05:40:00;4.5;;;2.4;;
48679;SDS011;34475;51.658;5.634;2023-03-30T05:41:00;4.5;;;2.4;;
48679;SDS011;34475;51.658;5.634;2023-03-30T05:42:00;4.5;;;2.4;;
48679;SDS011;34475;51.658;5.634;2023-03-30T05:43:00;4.5;;;2.4;;
48679;SDS011;34475;51.658;5.634;2023-03-30T05:44:00;0.6;;;0.6;;
48679;SDS011;34475;51.658;5.634;2023-03-30T05:45:00;0.6;;;0.6;;
48679;SDS011;34475;51.658;5.634;2023-03-30T05:46:01;0.6;;;0.6;;
48679;SDS011;34475;51.658;5.634;2023-03-30T05:47:00;0.6;;;0.6;;
48679;SDS011;34475;51.658;5.634;2023-03-30T05:48:00;0.6;;;0.6;;
48679;SDS011;34475;51.658;5.634;2023-03-30T05:49:00;0.6;;;0.6;;
48679;SDS011;34475;51.658;5.634;2023-03-30T05:50:01;0.6;;;0.6;;
48679;SDS011;34475;51.658;5.634;2023-03-30T05:51:02;0.6;;;0.6;;
48679;SDS011;34475;51.658;5.634;2023-03-30T05:52:00;0.6;;;0.6;;
48679;SDS011;34475;51.658;5.634;2023-03-30T05:53:00;0.6;;;0.6;;
48679;SDS011;34475;51.658;5.634;2023-03-30T05:54:00;0.6;;;0.6;;
48679;SDS011;34475;51.658;5.634;2023-03-30T05:55:00;0.6;;;0.6;;
48679;SDS011;34475;51.658;5.634;2023-03-30T05:56:00;0.6;;;0.6;;
48679;SDS011;34475;51.658;5.634;2023-03-30T05:57:00;0.6;;;0.6;;
48679;SDS011;34475;51.658;5.634;2023-03-30T05:58:00;0.6;;;0.6;;
48679;SDS011;34475;51.658;5.634;2023-03-30T05:59:00;0.6;;;0.6;;
48679;SDS011;34475;51.658;5.634;2023-03-30T06:00:00;0.6;;;0.6;;
48679;SDS011;34475;51.658;5.634;2023-03-30T06:01:00;0.6;;;0.6;;
48679;SDS011;34475;51.658;5.634;2023-03-30T06:02:00;0.6;;;0.6;;
48679;SDS011;34475;51.658;5.634;2023-03-30T06:03:01;0.6;;;0.6;;
48679;SDS011;34475;51.658;5.634;2023-03-30T06:04:00;0.9;;;0.9;;
48679;SDS011;34475;51.658;5.634;2023-03-30T06:05:01;0.9;;;0.9;;
48679;SDS011;34475;51.658;5.634;2023-03-30T06:06:00;0.9;;;0.9;;
48679;SDS011;34475;51.658;5.634;2023-03-30T06:07:01;0.9;;;0.9;;
48679;SDS011;34475;51.658;5.634;2023-03-30T06:08:00;0.9;;;0.9;;
48679;SDS011;34475;51.658;5.634;2023-03-30T06:09:01;0.9;;;0.9;;
48679;SDS011;34475;51.658;5.634;2023-03-30T06:10:00;0.9;;;0.9;;
48679;SDS011;34475;51.658;5.634;2023-03-30T06:11:00;0.9;;;0.9;;
48679;SDS011;34475;51.658;5.634;2023-03-30T06:12:00;0.9;;;0.9;;
48679;SDS011;34475;51.658;5.634;2023-03-30T06:13:00;0.9;;;0.9;;
48679;SDS011;34475;51.658;5.634;2023-03-30T06:14:00;0.9;;;0.9;;
48679;SDS011;34475;51.658;5.634;2023-03-30T06:15:01;0.9;;;0.9;;
48679;SDS011;34475;51.658;5.634;2023-03-30T06:16:03;0.9;;;0.9;;
48679;SDS011;34475;51.658;5.634;2023-03-30T06:17:00;0.9;;;0.9;;
48679;SDS011;34475;51.658;5.634;2023-03-30T06:18:02;0.9;;;0.9;;
48679;SDS011;34475;51.658;5.634;2023-03-30T06:19:02;0.9;;;0.9;;
48679;SDS011;34475;51.658;5.634;2023-03-30T06:20:00;0.9;;;0.9;;
48679;SDS011;34475;51.658;5.634;2023-03-30T06:21:01;0.9;;;0.9;;
48679;SDS011;34475;51.658;5.634;2023-03-30T06:22:00;0.9;;;0.9;;
48679;SDS011;34475;51.658;5.634;2023-03-30T06:23:00;0.9;;;0.9;;
48679;SDS011;34475;51.658;5.634;2023-03-30T06:24:00;1.0;;;1.0;;
48679;SDS011;34475;51.658;5.634;2023-03-30T06:25:00;1.0;;;1.0;;
48679;SDS011;34475;51.658;5.634;2023-03-30T06:26:00;1.0;;;1.0;;
48679;SDS011;34475;51.658;5.634;2023-03-30T06:27:02;1.0;;;1.0;;
48679;SDS011;34475;51.658;5.634;2023-03-30T06:28:00;1.0;;;1.0;;
48679;SDS011;34475;51.658;5.634;2023-03-30T06:29:00;1.0;;;1.0;;
48679;SDS011;34475;51.658;5.634;2023-03-30T06:30:00;1.0;;;1.0;;
48679;SDS011;34475;51.658;5.634;2023-03-30T06:31:05;1.0;;;1.0;;
48679;SDS011;34475;51.658;5.634;2023-03-30T06:32:02;1.0;;;1.0;;
48679;SDS011;34475;51.658;5.634;2023-03-30T06:33:00;1.0;;;1.0;;
48679;SDS011;34475;51.658;5.634;2023-03-30T06:34:00;1.0;;;1.0;;
48679;SDS011;34475;51.658;5.634;2023-03-30T06:35:02;1.0;;;1.0;;
48679;SDS011;34475;51.658;5.634;2023-03-30T06:36:00;1.0;;;1.0;;
48679;SDS011;34475;51.658;5.634;2023-03-30T06:37:00;1.0;;;1.0;;
48679;SDS011;34475;51.658;5.634;2023-03-30T06:38:00;1.0;;;1.0;;
48679;SDS011;34475;51.658;5.634;2023-03-30T06:39:04;1.0;;;1.0;;
48679;SDS011;34475;51.658;5.634;2023-03-30T06:40:00;1.0;;;1.0;;